sensor_id;sensor_type;location;lat;lon;timestamp;pressure;altitude;pressure_sealevel;temperature;humidity
71165;BME280;58859;55.132;-1.586;2024-01-11T00:00:29;103453.38;;;11.10;100.00
71165;BME280;58859;55.132;-1.586;2024-01-11T00:02:54;103453.53;;;11.07;100.00
71165;BME280;58859;55.132;-1.586;2024-01-11T00:05:19;103451.28;;;11.01;100.00
71165;BME280;58859;55.132;-1.586;2024-01-11T00:07:45;103452.81;;;11.21;100.00
71165;BME280;58859;55.132;-1.586;2024-01-11T00:10:10;103457.41;;;11.63;100.00
71165;BME280;58859;55.132;-1.586;2024-01-11T00:12:36;103447.91;;;11.30;100.00
71165;BME280;58859;55.132;-1.586;2024-01-11T00:15:01;103456.75;;;11.28;100.00
71165;BME280;58859;55.132;-1.586;2024-01-11T00:17:26;103463.56;;;10.66;100.00
71165;BME280;58859;55.132;-1.586;2024-01-11T00:19:52;103466.72;;;10.56;100.00
71165;BME280;58859;55.132;-1.586;2024-01-11T00:22:17;103468.41;;;10.57;100.00
71165;BME280;58859;55.132;-1.586;2024-01-11T00:24:43;103465.56;;;10.61;100.00
71165;BME280;58859;55.132;-1.586;2024-01-11T00:27:08;103471.25;;;10.52;100.00
71165;BME280;58859;55.132;-1.586;2024-01-11T00:29:35;103462.09;;;10.93;100.00
71165;BME280;58859;55.132;-1.586;2024-01-11T00:32:01;103452.09;;;10.86;100.00
71165;BME280;58859;55.132;-1.586;2024-01-11T00:34:26;103463.53;;;10.99;100.00
71165;BME280;58859;55.132;-1.586;2024-01-11T00:36:52;103461.44;;;11.06;100.00
71165;BME280;58859;55.132;-1.586;2024-01-11T00:39:17;103469.47;;;10.85;100.00
71165;BME280;58859;55.132;-1.586;2024-01-11T00:41:42;103470.59;;;10.97;100.00
71165;BME280;58859;55.132;-1.586;2024-01-11T00:44:08;103467.94;;;11.14;100.00
71165;BME280;58859;55.132;-1.586;2024-01-11T00:46:34;103459.69;;;11.22;100.00
71165;BME280;58859;55.132;-1.586;2024-01-11T00:49:00;103466.00;;;11.49;100.00
71165;BME280;58859;55.132;-1.586;2024-01-11T00:51:25;103467.25;;;11.73;100.00
71165;BME280;58859;55.132;-1.586;2024-01-11T00:53:51;103473.16;;;11.45;100.00
71165;BME280;58859;55.132;-1.586;2024-01-11T00:56:19;103476.81;;;11.10;100.00
71165;BME280;58859;55.132;-1.586;2024-01-11T00:58:45;103485.41;;;11.12;100.00
71165;BME280;58859;55.132;-1.586;2024-01-11T01:01:11;103484.97;;;10.71;100.00
71165;BME280;58859;55.132;-1.586;2024-01-11T01:03:37;103474.31;;;11.09;100.00
71165;BME280;58859;55.132;-1.586;2024-01-11T01:06:02;103467.88;;;10.83;100.00
71165;BME280;58859;55.132;-1.586;2024-01-11T01:08:28;103480.66;;;10.87;100.00
71165;BME280;58859;55.132;-1.586;2024-01-11T01:10:54;103479.03;;;11.18;100.00
71165;BME280;58859;55.132;-1.586;2024-01-11T01:13:19;103478.72;;;10.91;100.00
71165;BME280;58859;55.132;-1.586;2024-01-11T01:15:45;103483.16;;;10.56;100.00
71165;BME280;58859;55.132;-1.586;2024-01-11T01:18:10;103477.56;;;10.96;100.00
71165;BME280;58859;55.132;-1.586;2024-01-11T01:20:36;103484.81;;;10.74;100.00
71165;BME280;58859;55.132;-1.586;2024-01-11T01:23:01;103480.97;;;10.81;100.00
71165;BME280;58859;55.132;-1.586;2024-01-11T01:25:27;103482.88;;;11.11;100.00
71165;BME280;58859;55.132;-1.586;2024-01-11T01:27:52;103480.91;;;10.98;100.00
71165;BME280;58859;55.132;-1.586;2024-01-11T01:30:18;103479.25;;;11.44;100.00
71165;BME280;58859;55.132;-1.586;2024-01-11T01:32:43;103490.94;;;11.22;100.00
71165;BME280;58859;55.132;-1.586;2024-01-11T01:35:08;103487.34;;;11.40;100.00
71165;BME280;58859;55.132;-1.586;2024-01-11T01:37:34;103494.81;;;11.15;100.00
71165;BME280;58859;55.132;-1.586;2024-01-11T01:39:59;103495.66;;;11.31;100.00
71165;BME280;58859;55.132;-1.586;2024-01-11T01:42:25;103496.69;;;11.28;100.00
71165;BME280;58859;55.132;-1.586;2024-01-11T01:44:50;103491.53;;;11.11;100.00
71165;BME280;58859;55.132;-1.586;2024-01-11T01:47:16;103504.63;;;11.10;100.00
71165;BME280;58859;55.132;-1.586;2024-01-11T01:49:42;103503.13;;;11.06;100.00
71165;BME280;58859;55.132;-1.586;2024-01-11T01:52:08;103507.66;;;11.02;100.00
71165;BME280;58859;55.132;-1.586;2024-01-11T01:54:34;103511.50;;;10.95;100.00
71165;BME280;58859;55.132;-1.586;2024-01-11T01:57:01;103507.06;;;10.97;100.00
71165;BME280;58859;55.132;-1.586;2024-01-11T01:59:29;103500.97;;;11.29;100.00
71165;BME280;58859;55.132;-1.586;2024-01-11T02:01:55;103512.16;;;10.83;100.00
71165;BME280;58859;55.132;-1.586;2024-01-11T02:04:21;103505.19;;;10.83;100.00
71165;BME280;58859;55.132;-1.586;2024-01-11T02:06:48;103504.75;;;11.24;100.00
71165;BME280;58859;55.132;-1.586;2024-01-11T02:09:14;103513.16;;;10.96;100.00
71165;BME280;58859;55.132;-1.586;2024-01-11T02:11:44;103512.63;;;11.07;100.00
71165;BME280;58859;55.132;-1.586;2024-01-11T02:14:10;103514.97;;;11.11;100.00
71165;BME280;58859;55.132;-1.586;2024-01-11T02:16:36;103512.72;;;11.21;100.00
71165;BME280;58859;55.132;-1.586;2024-01-11T02:19:04;103518.56;;;10.76;100.00
71165;BME280;58859;55.132;-1.586;2024-01-11T02:21:33;103514.28;;;11.08;100.00
71165;BME280;58859;55.132;-1.586;2024-01-11T02:24:05;103522.63;;;11.14;100.00
71165;BME280;58859;55.132;-1.586;2024-01-11T02:26:32;103522.13;;;10.75;100.00
71165;BME280;58859;55.132;-1.586;2024-01-11T02:28:57;103520.63;;;11.19;100.00
71165;BME280;58859;55.132;-1.586;2024-01-11T02:31:24;103521.81;;;11.29;100.00
71165;BME280;58859;55.132;-1.586;2024-01-11T02:33:51;103532.56;;;11.39;100.00
71165;BME280;58859;55.132;-1.586;2024-01-11T02:36:17;103537.44;;;11.29;100.00
71165;BME280;58859;55.132;-1.586;2024-01-11T02:38:43;103539.22;;;10.96;100.00
71165;BME280;58859;55.132;-1.586;2024-01-11T02:41:08;103534.53;;;11.03;100.00
71165;BME280;58859;55.132;-1.586;2024-01-11T02:43:34;103545.06;;;11.17;100.00
71165;BME280;58859;55.132;-1.586;2024-01-11T02:46:03;103531.78;;;11.06;100.00
71165;BME280;58859;55.132;-1.586;2024-01-11T02:48:29;103540.50;;;11.05;100.00
71165;BME280;58859;55.132;-1.586;2024-01-11T02:50:55;103541.75;;;11.46;100.00
71165;BME280;58859;55.132;-1.586;2024-01-11T02:53:21;103539.66;;;11.04;100.00
71165;BME280;58859;55.132;-1.586;2024-01-11T02:55:47;103537.25;;;11.32;100.00
71165;BME280;58859;55.132;-1.586;2024-01-11T02:58:12;103543.03;;;11.06;100.00
71165;BME280;58859;55.132;-1.586;2024-01-11T03:00:37;103537.97;;;11.03;100.00
71165;BME280;58859;55.132;-1.586;2024-01-11T03:03:03;103534.91;;;11.12;100.00
71165;BME280;58859;55.132;-1.586;2024-01-11T03:05:29;103541.47;;;10.86;100.00
71165;BME280;58859;55.132;-1.586;2024-01-11T03:07:54;103552.41;;;10.76;100.00
71165;BME280;58859;55.132;-1.586;2024-01-11T03:10:20;103544.59;;;10.76;100.00
71165;BME280;58859;55.132;-1.586;2024-01-11T03:12:45;103545.78;;;10.53;100.00
71165;BME280;58859;55.132;-1.586;2024-01-11T03:15:11;103543.63;;;10.78;100.00
71165;BME280;58859;55.132;-1.586;2024-01-11T03:17:37;103545.69;;;10.72;100.00
71165;BME280;58859;55.132;-1.586;2024-01-11T03:20:02;103552.06;;;10.99;100.00
71165;BME280;58859;55.132;-1.586;2024-01-11T03:22:29;103556.31;;;10.84;100.00
71165;BME280;58859;55.132;-1.586;2024-01-11T03:24:55;103567.63;;;11.01;100.00
71165;BME280;58859;55.132;-1.586;2024-01-11T03:27:20;103557.09;;;11.19;100.00
71165;BME280;58859;55.132;-1.586;2024-01-11T03:29:46;103567.19;;;11.25;100.00
71165;BME280;58859;55.132;-1.586;2024-01-11T03:32:11;103570.16;;;10.85;100.00
71165;BME280;58859;55.132;-1.586;2024-01-11T03:34:39;103566.22;;;11.11;100.00
71165;BME280;58859;55.132;-1.586;2024-01-11T03:37:04;103561.97;;;11.25;100.00
71165;BME280;58859;55.132;-1.586;2024-01-11T03:39:30;103563.09;;;11.04;100.00
71165;BME280;58859;55.132;-1.586;2024-01-11T03:41:55;103565.91;;;11.32;100.00
71165;BME280;58859;55.132;-1.586;2024-01-11T03:44:22;103566.03;;;10.98;100.00
71165;BME280;58859;55.132;-1.586;2024-01-11T03:46:48;103539.50;;;11.07;100.00
71165;BME280;58859;55.132;-1.586;2024-01-11T03:49:13;103562.38;;;11.18;100.00
71165;BME280;58859;55.132;-1.586;2024-01-11T03:51:39;103559.41;;;11.57;100.00
71165;BME280;58859;55.132;-1.586;2024-01-11T03:54:05;103564.56;;;11.74;100.00
71165;BME280;58859;55.132;-1.586;2024-01-11T03:56:30;103569.72;;;11.10;100.00
71165;BME280;58859;55.132;-1.586;2024-01-11T03:58:56;103564.34;;;11.45;100.00
71165;BME280;58859;55.132;-1.586;2024-01-11T04:01:21;103576.41;;;11.15;100.00
71165;BME280;58859;55.132;-1.586;2024-01-11T04:03:47;103557.97;;;11.03;100.00
71165;BME280;58859;55.132;-1.586;2024-01-11T04:06:22;103577.19;;;11.33;100.00
71165;BME280;58859;55.132;-1.586;2024-01-11T04:08:49;103567.94;;;11.27;100.00
71165;BME280;58859;55.132;-1.586;2024-01-11T04:11:15;103574.53;;;11.50;100.00
71165;BME280;58859;55.132;-1.586;2024-01-11T04:13:40;103569.84;;;11.88;100.00
71165;BME280;58859;55.132;-1.586;2024-01-11T04:16:06;103575.31;;;11.99;100.00
71165;BME280;58859;55.132;-1.586;2024-01-11T04:18:32;103568.59;;;11.79;100.00
71165;BME280;58859;55.132;-1.586;2024-01-11T04:20:57;103568.06;;;11.57;100.00
71165;BME280;58859;55.132;-1.586;2024-01-11T04:23:23;103576.13;;;11.37;100.00
71165;BME280;58859;55.132;-1.586;2024-01-11T04:25:48;103572.41;;;11.25;100.00
71165;BME280;58859;55.132;-1.586;2024-01-11T04:28:15;103570.03;;;11.21;100.00
71165;BME280;58859;55.132;-1.586;2024-01-11T04:30:41;103570.84;;;11.54;100.00
71165;BME280;58859;55.132;-1.586;2024-01-11T04:33:06;103575.09;;;11.55;100.00
71165;BME280;58859;55.132;-1.586;2024-01-11T04:35:32;103571.88;;;11.83;100.00
71165;BME280;58859;55.132;-1.586;2024-01-11T04:37:57;103574.44;;;11.67;100.00
71165;BME280;58859;55.132;-1.586;2024-01-11T04:40:23;103571.25;;;11.46;100.00
71165;BME280;58859;55.132;-1.586;2024-01-11T04:42:48;103574.88;;;11.11;100.00
71165;BME280;58859;55.132;-1.586;2024-01-11T04:45:14;103573.31;;;11.24;100.00
71165;BME280;58859;55.132;-1.586;2024-01-11T04:47:39;103577.75;;;11.22;100.00
71165;BME280;58859;55.132;-1.586;2024-01-11T04:50:06;103580.31;;;11.24;100.00
71165;BME280;58859;55.132;-1.586;2024-01-11T04:52:32;103588.94;;;11.24;100.00
71165;BME280;58859;55.132;-1.586;2024-01-11T04:54:57;103579.88;;;11.31;100.00
71165;BME280;58859;55.132;-1.586;2024-01-11T04:57:23;103590.69;;;10.91;100.00
71165;BME280;58859;55.132;-1.586;2024-01-11T04:59:48;103584.13;;;10.84;100.00
71165;BME280;58859;55.132;-1.586;2024-01-11T05:02:13;103595.69;;;11.28;100.00
71165;BME280;58859;55.132;-1.586;2024-01-11T05:04:39;103593.59;;;11.35;100.00
71165;BME280;58859;55.132;-1.586;2024-01-11T05:07:04;103588.59;;;11.63;100.00
71165;BME280;58859;55.132;-1.586;2024-01-11T05:09:30;103594.25;;;11.23;100.00
71165;BME280;58859;55.132;-1.586;2024-01-11T05:11:55;103589.09;;;11.21;100.00
71165;BME280;58859;55.132;-1.586;2024-01-11T05:14:20;103593.97;;;11.12;100.00
71165;BME280;58859;55.132;-1.586;2024-01-11T05:16:46;103593.41;;;11.22;100.00
71165;BME280;58859;55.132;-1.586;2024-01-11T05:19:11;103590.34;;;11.14;100.00
71165;BME280;58859;55.132;-1.586;2024-01-11T05:21:37;103590.72;;;11.24;100.00
71165;BME280;58859;55.132;-1.586;2024-01-11T05:24:02;103586.69;;;11.49;100.00
71165;BME280;58859;55.132;-1.586;2024-01-11T05:26:28;103578.19;;;11.94;100.00
71165;BME280;58859;55.132;-1.586;2024-01-11T05:28:53;103592.44;;;11.40;100.00
71165;BME280;58859;55.132;-1.586;2024-01-11T05:31:19;103592.50;;;11.72;100.00
71165;BME280;58859;55.132;-1.586;2024-01-11T05:33:44;103593.16;;;11.91;100.00
71165;BME280;58859;55.132;-1.586;2024-01-11T05:36:10;103597.47;;;11.43;100.00
71165;BME280;58859;55.132;-1.586;2024-01-11T05:38:38;103603.91;;;11.21;100.00
71165;BME280;58859;55.132;-1.586;2024-01-11T05:41:04;103586.84;;;11.31;100.00
71165;BME280;58859;55.132;-1.586;2024-01-11T05:43:29;103595.13;;;11.06;100.00
71165;BME280;58859;55.132;-1.586;2024-01-11T05:45:55;103581.44;;;11.51;100.00
71165;BME280;58859;55.132;-1.586;2024-01-11T05:48:20;103587.34;;;11.70;100.00
71165;BME280;58859;55.132;-1.586;2024-01-11T05:50:46;103587.94;;;11.91;100.00
71165;BME280;58859;55.132;-1.586;2024-01-11T05:53:12;103583.19;;;11.50;100.00
71165;BME280;58859;55.132;-1.586;2024-01-11T05:55:38;103588.06;;;11.08;100.00
71165;BME280;58859;55.132;-1.586;2024-01-11T05:58:04;103576.13;;;11.37;100.00
71165;BME280;58859;55.132;-1.586;2024-01-11T06:00:29;103585.94;;;11.32;100.00
71165;BME280;58859;55.132;-1.586;2024-01-11T06:02:55;103592.50;;;11.72;100.00
71165;BME280;58859;55.132;-1.586;2024-01-11T06:05:21;103591.31;;;11.44;100.00
71165;BME280;58859;55.132;-1.586;2024-01-11T06:07:46;103592.34;;;11.42;100.00
71165;BME280;58859;55.132;-1.586;2024-01-11T06:10:14;103599.66;;;11.51;100.00
71165;BME280;58859;55.132;-1.586;2024-01-11T06:12:40;103610.94;;;11.19;100.00
71165;BME280;58859;55.132;-1.586;2024-01-11T06:15:07;103606.47;;;11.38;100.00
71165;BME280;58859;55.132;-1.586;2024-01-11T06:17:32;103602.88;;;11.56;100.00
71165;BME280;58859;55.132;-1.586;2024-01-11T06:19:58;103606.78;;;11.96;100.00
71165;BME280;58859;55.132;-1.586;2024-01-11T06:22:24;103603.16;;;11.98;100.00
71165;BME280;58859;55.132;-1.586;2024-01-11T06:24:49;103600.13;;;11.90;100.00
71165;BME280;58859;55.132;-1.586;2024-01-11T06:27:14;103602.84;;;11.89;100.00
71165;BME280;58859;55.132;-1.586;2024-01-11T06:29:40;103616.03;;;11.05;100.00
71165;BME280;58859;55.132;-1.586;2024-01-11T06:32:05;103609.19;;;11.19;100.00
71165;BME280;58859;55.132;-1.586;2024-01-11T06:34:31;103616.03;;;10.87;100.00
71165;BME280;58859;55.132;-1.586;2024-01-11T06:36:56;103618.91;;;11.16;100.00
71165;BME280;58859;55.132;-1.586;2024-01-11T06:39:22;103615.00;;;11.73;100.00
71165;BME280;58859;55.132;-1.586;2024-01-11T06:41:47;103616.56;;;12.38;100.00
71165;BME280;58859;55.132;-1.586;2024-01-11T06:44:13;103624.19;;;12.56;100.00
71165;BME280;58859;55.132;-1.586;2024-01-11T06:46:38;103629.09;;;12.17;100.00
71165;BME280;58859;55.132;-1.586;2024-01-11T06:49:07;103630.50;;;11.43;100.00
71165;BME280;58859;55.132;-1.586;2024-01-11T06:51:33;103634.28;;;11.37;100.00
71165;BME280;58859;55.132;-1.586;2024-01-11T06:53:59;103638.75;;;12.15;100.00
71165;BME280;58859;55.132;-1.586;2024-01-11T06:56:26;103630.81;;;11.70;100.00
71165;BME280;58859;55.132;-1.586;2024-01-11T06:58:52;103639.88;;;11.63;100.00
71165;BME280;58859;55.132;-1.586;2024-01-11T07:01:18;103634.31;;;11.53;100.00
71165;BME280;58859;55.132;-1.586;2024-01-11T07:03:43;103635.13;;;11.86;100.00
71165;BME280;58859;55.132;-1.586;2024-01-11T07:06:09;103634.66;;;11.30;100.00
71165;BME280;58859;55.132;-1.586;2024-01-11T07:08:35;103626.41;;;12.03;100.00
71165;BME280;58859;55.132;-1.586;2024-01-11T07:11:01;103633.91;;;11.61;100.00
71165;BME280;58859;55.132;-1.586;2024-01-11T07:13:30;103633.19;;;11.41;100.00
71165;BME280;58859;55.132;-1.586;2024-01-11T07:15:59;103633.25;;;11.73;100.00
71165;BME280;58859;55.132;-1.586;2024-01-11T07:18:25;103634.06;;;11.58;100.00
71165;BME280;58859;55.132;-1.586;2024-01-11T07:20:52;103643.28;;;11.47;100.00
71165;BME280;58859;55.132;-1.586;2024-01-11T07:23:17;103647.69;;;11.63;100.00
71165;BME280;58859;55.132;-1.586;2024-01-11T07:25:43;103642.19;;;12.16;100.00
71165;BME280;58859;55.132;-1.586;2024-01-11T07:28:08;103643.75;;;12.49;100.00
71165;BME280;58859;55.132;-1.586;2024-01-11T07:30:34;103651.16;;;12.57;100.00
71165;BME280;58859;55.132;-1.586;2024-01-11T07:33:00;103661.72;;;11.93;100.00
71165;BME280;58859;55.132;-1.586;2024-01-11T07:35:26;103663.72;;;11.55;100.00
71165;BME280;58859;55.132;-1.586;2024-01-11T07:37:51;103673.19;;;11.58;100.00
71165;BME280;58859;55.132;-1.586;2024-01-11T07:40:17;103668.53;;;11.80;100.00
71165;BME280;58859;55.132;-1.586;2024-01-11T07:42:43;103665.44;;;12.04;100.00
71165;BME280;58859;55.132;-1.586;2024-01-11T07:45:09;103668.47;;;12.28;100.00
71165;BME280;58859;55.132;-1.586;2024-01-11T07:47:38;103676.84;;;11.86;100.00
71165;BME280;58859;55.132;-1.586;2024-01-11T07:50:07;103689.25;;;12.14;100.00
71165;BME280;58859;55.132;-1.586;2024-01-11T07:52:34;103677.69;;;12.49;100.00
71165;BME280;58859;55.132;-1.586;2024-01-11T07:55:00;103687.66;;;12.27;100.00
71165;BME280;58859;55.132;-1.586;2024-01-11T07:57:34;103700.44;;;11.35;100.00
71165;BME280;58859;55.132;-1.586;2024-01-11T08:00:00;103697.63;;;11.55;100.00
71165;BME280;58859;55.132;-1.586;2024-01-11T08:02:26;103704.50;;;11.06;100.00
71165;BME280;58859;55.132;-1.586;2024-01-11T08:04:51;103711.75;;;10.82;100.00
71165;BME280;58859;55.132;-1.586;2024-01-11T08:07:17;103714.03;;;11.57;100.00
71165;BME280;58859;55.132;-1.586;2024-01-11T08:09:42;103711.81;;;11.49;100.00
71165;BME280;58859;55.132;-1.586;2024-01-11T08:12:11;103714.94;;;11.56;100.00
71165;BME280;58859;55.132;-1.586;2024-01-11T08:14:36;103703.03;;;12.00;100.00
71165;BME280;58859;55.132;-1.586;2024-01-11T08:17:02;103712.19;;;11.59;100.00
71165;BME280;58859;55.132;-1.586;2024-01-11T08:19:30;103721.16;;;11.53;100.00
71165;BME280;58859;55.132;-1.586;2024-01-11T08:21:56;103724.50;;;11.23;100.00
71165;BME280;58859;55.132;-1.586;2024-01-11T08:24:22;103715.22;;;11.84;100.00
71165;BME280;58859;55.132;-1.586;2024-01-11T08:26:48;103721.75;;;12.24;100.00
71165;BME280;58859;55.132;-1.586;2024-01-11T08:29:13;103727.44;;;11.49;100.00
71165;BME280;58859;55.132;-1.586;2024-01-11T08:31:39;103721.38;;;12.46;100.00
71165;BME280;58859;55.132;-1.586;2024-01-11T08:34:04;103734.00;;;11.91;100.00
71165;BME280;58859;55.132;-1.586;2024-01-11T08:36:31;103744.19;;;11.45;100.00
71165;BME280;58859;55.132;-1.586;2024-01-11T08:38:59;103755.47;;;11.46;100.00
71165;BME280;58859;55.132;-1.586;2024-01-11T08:41:25;103755.50;;;11.10;100.00
71165;BME280;58859;55.132;-1.586;2024-01-11T08:43:50;103746.50;;;11.67;100.00
71165;BME280;58859;55.132;-1.586;2024-01-11T08:46:26;103755.16;;;11.35;100.00
71165;BME280;58859;55.132;-1.586;2024-01-11T08:48:52;103755.06;;;11.36;100.00
71165;BME280;58859;55.132;-1.586;2024-01-11T08:51:18;103749.59;;;11.75;100.00
71165;BME280;58859;55.132;-1.586;2024-01-11T08:53:43;103751.09;;;12.12;100.00
71165;BME280;58859;55.132;-1.586;2024-01-11T08:56:09;103747.94;;;11.40;100.00
71165;BME280;58859;55.132;-1.586;2024-01-11T08:58:34;103761.25;;;12.01;100.00
71165;BME280;58859;55.132;-1.586;2024-01-11T09:01:00;103753.75;;;11.95;100.00
71165;BME280;58859;55.132;-1.586;2024-01-11T09:03:25;103764.16;;;12.28;100.00
71165;BME280;58859;55.132;-1.586;2024-01-11T09:05:51;103758.75;;;12.15;100.00
71165;BME280;58859;55.132;-1.586;2024-01-11T09:08:16;103759.22;;;12.39;100.00
71165;BME280;58859;55.132;-1.586;2024-01-11T09:10:41;103755.59;;;12.26;100.00
71165;BME280;58859;55.132;-1.586;2024-01-11T09:13:07;103765.00;;;12.13;100.00
71165;BME280;58859;55.132;-1.586;2024-01-11T09:15:32;103769.97;;;12.17;100.00
71165;BME280;58859;55.132;-1.586;2024-01-11T09:17:59;103764.25;;;12.42;100.00
71165;BME280;58859;55.132;-1.586;2024-01-11T09:20:25;103779.13;;;11.41;100.00
71165;BME280;58859;55.132;-1.586;2024-01-11T09:22:50;103775.16;;;11.51;100.00
71165;BME280;58859;55.132;-1.586;2024-01-11T09:25:16;103779.44;;;11.35;100.00
71165;BME280;58859;55.132;-1.586;2024-01-11T09:27:41;103786.34;;;11.53;100.00
71165;BME280;58859;55.132;-1.586;2024-01-11T09:30:07;103787.41;;;12.17;100.00
71165;BME280;58859;55.132;-1.586;2024-01-11T09:32:34;103790.59;;;12.22;100.00
71165;BME280;58859;55.132;-1.586;2024-01-11T09:34:59;103791.25;;;11.42;100.00
71165;BME280;58859;55.132;-1.586;2024-01-11T09:37:25;103790.06;;;12.15;100.00
71165;BME280;58859;55.132;-1.586;2024-01-11T09:39:51;103794.69;;;11.60;100.00
71165;BME280;58859;55.132;-1.586;2024-01-11T09:42:18;103794.06;;;12.22;100.00
71165;BME280;58859;55.132;-1.586;2024-01-11T09:44:43;103791.88;;;12.46;100.00
71165;BME280;58859;55.132;-1.586;2024-01-11T09:47:10;103791.19;;;12.11;100.00
71165;BME280;58859;55.132;-1.586;2024-01-11T09:49:37;103797.06;;;11.47;100.00
71165;BME280;58859;55.132;-1.586;2024-01-11T09:52:04;103800.38;;;12.01;100.00
71165;BME280;58859;55.132;-1.586;2024-01-11T09:54:31;103788.03;;;12.04;100.00
71165;BME280;58859;55.132;-1.586;2024-01-11T09:57:01;103787.34;;;11.51;100.00
71165;BME280;58859;55.132;-1.586;2024-01-11T09:59:28;103790.41;;;11.76;100.00
71165;BME280;58859;55.132;-1.586;2024-01-11T10:01:54;103790.13;;;12.62;100.00
71165;BME280;58859;55.132;-1.586;2024-01-11T10:04:19;103786.81;;;12.27;100.00
71165;BME280;58859;55.132;-1.586;2024-01-11T10:06:46;103782.34;;;12.60;100.00
71165;BME280;58859;55.132;-1.586;2024-01-11T10:09:12;103791.31;;;11.75;100.00
71165;BME280;58859;55.132;-1.586;2024-01-11T10:11:38;103785.44;;;12.04;100.00
71165;BME280;58859;55.132;-1.586;2024-01-11T10:14:06;103782.66;;;12.07;100.00
71165;BME280;58859;55.132;-1.586;2024-01-11T10:16:33;103798.59;;;12.19;100.00
71165;BME280;58859;55.132;-1.586;2024-01-11T10:18:58;103807.84;;;12.08;100.00
71165;BME280;58859;55.132;-1.586;2024-01-11T10:21:24;103796.28;;;11.63;100.00
71165;BME280;58859;55.132;-1.586;2024-01-11T10:23:50;103797.00;;;11.66;100.00
71165;BME280;58859;55.132;-1.586;2024-01-11T10:26:16;103799.03;;;11.94;100.00
71165;BME280;58859;55.132;-1.586;2024-01-11T10:28:45;103796.75;;;11.88;100.00
71165;BME280;58859;55.132;-1.586;2024-01-11T10:31:11;103799.16;;;12.08;100.00
71165;BME280;58859;55.132;-1.586;2024-01-11T10:33:37;103804.22;;;12.11;100.00
71165;BME280;58859;55.132;-1.586;2024-01-11T10:36:03;103810.34;;;11.77;100.00
71165;BME280;58859;55.132;-1.586;2024-01-11T10:38:30;103806.16;;;11.22;100.00
71165;BME280;58859;55.132;-1.586;2024-01-11T10:40:59;103814.84;;;11.39;100.00
71165;BME280;58859;55.132;-1.586;2024-01-11T10:43:26;103823.44;;;11.59;100.00
71165;BME280;58859;55.132;-1.586;2024-01-11T10:45:57;103822.97;;;12.18;100.00
71165;BME280;58859;55.132;-1.586;2024-01-11T10:48:25;103818.50;;;12.04;100.00
71165;BME280;58859;55.132;-1.586;2024-01-11T10:50:54;103819.38;;;11.87;100.00
71165;BME280;58859;55.132;-1.586;2024-01-11T10:55:50;103826.47;;;12.34;100.00
71165;BME280;58859;55.132;-1.586;2024-01-11T10:58:15;103822.44;;;12.75;100.00
71165;BME280;58859;55.132;-1.586;2024-01-11T11:00:42;103829.22;;;12.15;100.00
71165;BME280;58859;55.132;-1.586;2024-01-11T11:03:09;103828.91;;;11.71;100.00
71165;BME280;58859;55.132;-1.586;2024-01-11T11:05:37;103828.94;;;12.04;100.00
71165;BME280;58859;55.132;-1.586;2024-01-11T11:08:03;103830.22;;;11.80;100.00
71165;BME280;58859;55.132;-1.586;2024-01-11T11:10:32;103835.28;;;12.16;100.00
71165;BME280;58859;55.132;-1.586;2024-01-11T11:12:59;103838.53;;;11.86;100.00
71165;BME280;58859;55.132;-1.586;2024-01-11T11:15:28;103838.75;;;11.65;100.00
71165;BME280;58859;55.132;-1.586;2024-01-11T11:17:54;103844.84;;;11.99;100.00
71165;BME280;58859;55.132;-1.586;2024-01-11T11:20:20;103838.91;;;11.62;100.00
71165;BME280;58859;55.132;-1.586;2024-01-11T11:23:03;103840.09;;;11.90;100.00
71165;BME280;58859;55.132;-1.586;2024-01-11T11:25:30;103837.19;;;11.79;100.00
71165;BME280;58859;55.132;-1.586;2024-01-11T11:27:55;103837.66;;;12.20;100.00
71165;BME280;58859;55.132;-1.586;2024-01-11T11:30:21;103840.59;;;12.14;100.00
71165;BME280;58859;55.132;-1.586;2024-01-11T11:32:46;103846.09;;;12.25;100.00
71165;BME280;58859;55.132;-1.586;2024-01-11T11:35:12;103834.84;;;11.56;100.00
71165;BME280;58859;55.132;-1.586;2024-01-11T11:37:39;103826.00;;;11.77;100.00
71165;BME280;58859;55.132;-1.586;2024-01-11T11:40:08;103827.81;;;12.25;100.00
71165;BME280;58859;55.132;-1.586;2024-01-11T11:42:36;103824.22;;;11.78;100.00
71165;BME280;58859;55.132;-1.586;2024-01-11T11:45:02;103829.22;;;11.82;100.00
71165;BME280;58859;55.132;-1.586;2024-01-11T11:47:35;103823.72;;;12.04;100.00
71165;BME280;58859;55.132;-1.586;2024-01-11T11:50:11;103830.00;;;12.17;100.00
71165;BME280;58859;55.132;-1.586;2024-01-11T11:52:38;103826.91;;;12.09;100.00
71165;BME280;58859;55.132;-1.586;2024-01-11T11:55:06;103834.56;;;11.62;100.00
71165;BME280;58859;55.132;-1.586;2024-01-11T11:57:33;103827.72;;;11.60;100.00
71165;BME280;58859;55.132;-1.586;2024-01-11T11:59:59;103829.47;;;11.25;100.00
71165;BME280;58859;55.132;-1.586;2024-01-11T12:02:26;103835.25;;;11.13;100.00
71165;BME280;58859;55.132;-1.586;2024-01-11T12:04:52;103825.69;;;11.13;100.00
71165;BME280;58859;55.132;-1.586;2024-01-11T12:07:19;103837.59;;;11.72;100.00
71165;BME280;58859;55.132;-1.586;2024-01-11T12:09:46;103834.84;;;12.07;100.00
71165;BME280;58859;55.132;-1.586;2024-01-11T12:12:12;103840.00;;;12.25;100.00
71165;BME280;58859;55.132;-1.586;2024-01-11T12:14:38;103843.25;;;12.13;100.00
71165;BME280;58859;55.132;-1.586;2024-01-11T12:17:06;103843.38;;;11.94;100.00
71165;BME280;58859;55.132;-1.586;2024-01-11T12:19:31;103851.97;;;11.79;100.00
71165;BME280;58859;55.132;-1.586;2024-01-11T12:21:58;103835.00;;;11.53;100.00
71165;BME280;58859;55.132;-1.586;2024-01-11T12:24:23;103847.00;;;12.24;100.00
71165;BME280;58859;55.132;-1.586;2024-01-11T12:26:49;103839.91;;;12.59;100.00